createdAt,value
2018-09-21T00:04:28.511Z,15.70
2018-09-21T00:09:25.435Z,15.17
2018-09-21T00:14:22.121Z,14.87
2018-09-21T00:19:19.044Z,14.07
2018-09-21T00:24:15.800Z,13.33
2018-09-21T00:29:19.432Z,13.30
2018-09-21T00:34:16.253Z,13.00
2018-09-21T00:39:13.252Z,14.03
2018-09-21T00:44:10.012Z,13.10
2018-09-21T00:49:06.951Z,16.00
2018-09-21T00:54:03.644Z,15.40
2018-09-21T00:59:01.565Z,16.77
2018-09-21T01:03:58.387Z,17.73
2018-09-21T01:08:55.440Z,16.30
2018-09-21T01:13:52.233Z,19.07
2018-09-21T01:18:49.250Z,15.17
2018-09-21T01:23:46.043Z,15.47
2018-09-21T01:28:43.083Z,17.13
2018-09-21T01:33:39.808Z,16.47
2018-09-21T01:38:36.904Z,16.73
2018-09-21T01:43:33.562Z,17.13
2018-09-21T01:48:30.716Z,14.90
2018-09-21T01:58:41.840Z,14.97
2018-09-21T02:03:40.138Z,16.03
2018-09-21T02:08:37.727Z,15.57
2018-09-21T02:13:34.555Z,17.70
2018-09-21T02:18:32.774Z,16.17
2018-09-21T02:23:29.530Z,14.57
2018-09-21T02:28:29.778Z,15.60
2018-09-21T02:33:26.486Z,17.90
2018-09-21T02:38:23.467Z,15.47
2018-09-21T02:43:20.117Z,14.93
2018-09-21T02:53:19.970Z,16.10
2018-09-21T02:58:17.075Z,16.17
2018-09-21T03:03:13.867Z,15.37
2018-09-21T03:08:11.914Z,15.33
2018-09-21T03:13:08.757Z,19.67
2018-09-21T03:18:05.738Z,18.17
2018-09-21T03:23:04.102Z,16.83
2018-09-21T03:28:02.014Z,17.80
2018-09-21T03:32:58.767Z,15.33
2018-09-21T03:37:55.748Z,18.10
2018-09-21T03:42:52.444Z,16.97
2018-09-21T03:47:50.070Z,16.60
2018-09-21T03:52:47.132Z,16.40
2018-09-21T03:57:43.988Z,17.30
2018-09-21T04:02:40.718Z,17.03
2018-09-21T04:07:37.713Z,17.47
2018-09-21T04:12:34.439Z,17.30
2018-09-21T04:17:31.401Z,19.47
2018-09-21T04:22:28.383Z,16.53
2018-09-21T04:27:37.870Z,16.23
2018-09-21T04:32:34.681Z,18.63
2018-09-21T04:37:31.679Z,16.07
2018-09-21T04:42:28.468Z,16.73
2018-09-21T04:47:25.412Z,16.97
2018-09-21T04:52:22.121Z,15.90
2018-09-21T04:57:19.125Z,17.97
2018-09-21T05:02:15.796Z,17.47
2018-09-21T05:07:12.641Z,21.40
2018-09-21T05:12:09.465Z,19.83
2018-09-21T05:17:06.467Z,17.30
2018-09-21T05:22:04.137Z,18.07
2018-09-21T05:27:01.308Z,18.03
2018-09-21T05:31:58.367Z,17.10
2018-09-21T05:36:55.563Z,17.63
2018-09-21T05:41:52.288Z,17.07
2018-09-21T05:46:49.362Z,17.23
2018-09-21T05:51:46.084Z,21.23
2018-09-21T05:56:43.887Z,19.43
2018-09-21T06:01:40.619Z,21.97
2018-09-21T06:06:37.825Z,21.00
2018-09-21T06:11:34.614Z,17.57
2018-09-21T06:16:32.480Z,21.13
2018-09-21T06:21:29.196Z,19.67
2018-09-21T06:26:27.196Z,16.57
2018-09-21T06:31:23.860Z,16.07
2018-09-21T06:36:21.863Z,18.23
2018-09-21T06:41:18.865Z,15.08
2018-09-21T06:46:15.895Z,16.37
2018-09-21T06:51:12.642Z,13.57
2018-09-21T06:56:09.608Z,21.85
2018-09-21T07:01:06.379Z,13.80
2018-09-21T07:06:03.529Z,11.85
2018-09-21T07:11:00.272Z,12.40
2018-09-21T07:15:57.263Z,12.43
2018-09-21T07:20:53.981Z,11.35
2018-09-21T07:25:51.994Z,10.48
2018-09-21T07:30:48.767Z,10.20
2018-09-21T07:35:47.403Z,9.93
2018-09-21T07:40:44.163Z,9.90
2018-09-21T07:45:42.919Z,8.73
2018-09-21T07:50:39.755Z,8.93
2018-09-21T07:55:36.728Z,8.48
2018-09-21T08:00:33.547Z,9.18
2018-09-21T08:05:34.340Z,8.13
2018-09-21T08:10:31.048Z,8.45
2018-09-21T08:15:29.200Z,9.65
2018-09-21T08:20:26.433Z,8.08
2018-09-21T08:25:23.730Z,10.15
2018-09-21T08:30:20.670Z,7.72
2018-09-21T08:35:17.865Z,7.62
2018-09-21T08:40:14.538Z,6.20
2018-09-21T08:45:11.472Z,6.92
2018-09-21T08:50:09.001Z,12.50
2018-09-21T08:55:06.135Z,10.35
2018-09-21T09:00:03.050Z,6.95
2018-09-21T09:05:00.049Z,6.42
2018-09-21T09:09:56.788Z,7.67
2018-09-21T09:14:54.090Z,6.40
2018-09-21T09:19:51.053Z,5.83
2018-09-21T09:24:48.281Z,10.13
2018-09-21T09:29:45.324Z,6.35
2018-09-21T09:34:42.537Z,8.73
2018-09-21T09:39:39.723Z,7.72
2018-09-21T09:44:36.446Z,8.20
2018-09-21T09:49:33.637Z,7.33
2018-09-21T09:54:30.415Z,10.05
2018-09-21T09:59:27.344Z,7.83
2018-09-21T10:04:24.414Z,7.95
2018-09-21T10:09:21.142Z,12.05
2018-09-21T10:14:18.128Z,7.25
2018-09-21T10:19:15.200Z,5.90
2018-09-21T10:24:12.201Z,6.35
2018-09-21T10:29:08.933Z,8.28
2018-09-21T10:34:05.949Z,8.28
2018-09-21T10:39:03.633Z,6.05
2018-09-21T10:44:00.320Z,7.62
2018-09-21T10:48:57.286Z,5.08
2018-09-21T10:53:53.987Z,5.62
2018-09-21T10:58:50.993Z,9.48
2018-09-21T11:03:47.671Z,8.15
2018-09-21T11:08:44.612Z,9.80
2018-09-21T11:13:41.298Z,6.72
2018-09-21T11:18:38.251Z,8.85
2018-09-21T11:23:35.578Z,7.12
2018-09-21T11:28:32.976Z,9.90
2018-09-21T11:33:29.771Z,5.78
2018-09-21T11:38:27.013Z,11.30
2018-09-21T11:43:23.428Z,12.20
2018-09-21T11:48:20.435Z,11.85
2018-09-21T11:53:17.574Z,6.65
2018-09-21T11:58:14.550Z,16.37
2018-09-21T12:03:11.264Z,7.30
2018-09-21T12:08:08.265Z,6.53
2018-09-21T12:13:04.956Z,6.65
2018-09-21T12:18:02.101Z,11.28
2018-09-21T12:22:58.842Z,13.28
2018-09-21T12:27:56.139Z,8.70
2018-09-21T12:32:52.817Z,8.45
2018-09-21T12:37:49.949Z,7.25
2018-09-21T12:42:46.659Z,6.35
2018-09-21T12:47:44.191Z,7.30
2018-09-21T12:52:41.038Z,9.70
2018-09-21T12:57:37.805Z,11.75
2018-09-21T13:02:35.103Z,8.45
2018-09-21T13:07:32.116Z,13.05
2018-09-21T13:12:29.127Z,8.53
2018-09-21T13:17:25.885Z,10.18
2018-09-21T13:22:24.149Z,6.62
2018-09-21T13:27:21.123Z,7.70
2018-09-21T13:32:17.648Z,9.15
2018-09-21T13:37:14.643Z,8.90
2018-09-21T13:42:11.316Z,8.18
2018-09-21T13:47:08.247Z,10.40
2018-09-21T13:52:05.817Z,13.10
2018-09-21T13:57:02.792Z,8.73
2018-09-21T14:01:59.772Z,12.95
2018-09-21T14:06:56.600Z,11.97
2018-09-21T14:11:53.892Z,8.25
2018-09-21T14:16:50.833Z,8.55
2018-09-21T14:21:47.857Z,7.65
2018-09-21T14:26:44.785Z,8.15
2018-09-21T14:31:41.964Z,8.53
2018-09-21T14:36:40.016Z,12.68
2018-09-21T14:41:37.453Z,7.62
2018-09-21T14:46:34.259Z,8.98
2018-09-21T14:51:31.657Z,12.78
2018-09-21T14:56:28.504Z,9.58
2018-09-21T15:01:25.463Z,7.87
2018-09-21T15:06:22.411Z,9.33
2018-09-21T15:11:19.199Z,8.75
2018-09-21T15:16:16.441Z,8.55
2018-09-21T15:21:13.162Z,7.33
2018-09-21T15:26:10.461Z,8.95
2018-09-21T15:31:07.361Z,10.28
2018-09-21T15:36:05.248Z,8.93
2018-09-21T15:41:01.950Z,10.58
2018-09-21T15:45:58.939Z,13.65
2018-09-21T15:50:55.606Z,13.08
2018-09-21T15:55:52.536Z,11.12
2018-09-21T16:00:49.823Z,12.43
2018-09-21T16:05:46.593Z,8.70
2018-09-21T16:10:43.638Z,14.28
2018-09-21T16:15:40.409Z,11.08
2018-09-21T16:20:37.457Z,9.85
2018-09-21T16:25:34.350Z,11.05
2018-09-21T16:30:31.352Z,11.57
2018-09-21T16:35:28.060Z,14.53
2018-09-21T16:40:25.871Z,18.75
2018-09-21T16:45:22.596Z,13.32
2018-09-21T16:50:19.655Z,13.58
2018-09-21T16:55:16.484Z,7.70
2018-09-21T17:00:13.374Z,7.50
2018-09-21T17:05:10.137Z,10.27
2018-09-21T17:10:06.852Z,5.00
2018-09-21T17:15:03.855Z,3.63
2018-09-21T17:20:01.104Z,1.53
2018-09-21T17:24:58.075Z,1.93
2018-09-21T17:29:54.813Z,3.03
2018-09-21T17:34:51.743Z,3.13
2018-09-21T17:39:48.711Z,8.40
2018-09-21T17:44:45.519Z,6.03
2018-09-21T17:49:42.473Z,4.97
2018-09-21T17:54:39.174Z,5.23
2018-09-21T17:59:36.591Z,2.30
2018-09-21T18:04:33.548Z,3.83
2018-09-21T18:09:31.320Z,5.50
2018-09-21T18:14:28.655Z,3.33
2018-09-21T18:19:25.746Z,3.13
2018-09-21T18:24:22.849Z,4.10
2018-09-21T18:29:20.148Z,2.60
2018-09-21T18:34:17.404Z,4.30
2018-09-21T18:39:14.079Z,6.07
2018-09-21T18:44:11.432Z,3.60
2018-09-21T18:49:08.638Z,3.43
2018-09-21T18:54:05.588Z,4.23
2018-09-21T18:59:02.631Z,4.37
2018-09-21T19:04:00.447Z,5.53
2018-09-21T19:08:57.234Z,2.20
2018-09-21T19:13:54.083Z,4.83
2018-09-21T19:18:50.828Z,5.03
2018-09-21T19:23:47.951Z,5.97
2018-09-21T19:28:44.732Z,6.27
2018-09-21T19:33:41.876Z,8.23
2018-09-21T19:38:38.672Z,5.30
2018-09-21T19:43:35.785Z,5.07
2018-09-21T19:48:32.738Z,4.20
2018-09-21T19:53:30.131Z,10.13
2018-09-21T19:58:26.855Z,5.77
2018-09-21T20:03:23.848Z,5.40
2018-09-21T20:08:20.630Z,8.23
2018-09-21T20:13:17.562Z,3.73
2018-09-21T20:18:14.337Z,3.67
2018-09-21T20:23:11.277Z,7.23
2018-09-21T20:28:08.074Z,8.13
2018-09-21T20:33:10.636Z,5.50
2018-09-21T20:38:07.415Z,5.63
2018-09-21T20:43:04.171Z,3.17
2018-09-21T20:48:00.924Z,4.13
2018-09-21T20:52:58.167Z,9.13
2018-09-21T20:57:55.540Z,4.70
2018-09-21T21:02:52.721Z,7.83
2018-09-21T21:07:49.489Z,5.23
2018-09-21T21:12:46.652Z,4.60
2018-09-21T21:17:43.363Z,7.03
2018-09-21T21:22:40.457Z,5.97
2018-09-21T21:27:37.516Z,9.53
2018-09-21T21:32:34.602Z,8.20
2018-09-21T21:37:31.373Z,6.97
2018-09-21T21:42:28.416Z,10.47
2018-09-21T21:47:25.197Z,7.90
2018-09-21T21:52:22.410Z,6.40
2018-09-21T21:57:19.167Z,6.20
2018-09-21T22:02:16.032Z,8.67
2018-09-21T22:07:12.995Z,9.10
2018-09-21T22:12:15.408Z,8.70
2018-09-21T22:17:12.098Z,7.07
2018-09-21T22:22:09.015Z,10.83
2018-09-21T22:27:05.804Z,9.47
2018-09-21T22:32:02.864Z,10.93
2018-09-21T22:36:59.655Z,8.83
2018-09-21T22:41:56.677Z,7.00
2018-09-21T22:46:53.406Z,11.60
2018-09-21T22:51:50.974Z,8.17
2018-09-21T22:56:47.728Z,12.27
2018-09-21T23:01:45.111Z,9.07
2018-09-21T23:06:41.823Z,10.03
2018-09-21T23:11:39.283Z,7.90
2018-09-21T23:16:36.057Z,11.17
2018-09-21T23:21:33.344Z,4.97
2018-09-21T23:26:30.222Z,5.67
2018-09-21T23:31:27.236Z,4.73
2018-09-21T23:36:24.229Z,10.03
2018-09-21T23:41:20.922Z,7.00
2018-09-21T23:46:17.906Z,6.97
2018-09-21T23:51:14.640Z,7.43
2018-09-21T23:56:11.933Z,6.23
